Time;durP1;ratioP1;P1;durP2;ratioP2;P2;SDS_P1;SDS_P2;PMS_P1;PMS_P2;Temp;Humidity;BMP_temperature;BMP_pressure;BME280_temperature;BME280_humidity;BME280_pressure;Samples;Min_cycle;Max_cycle;Signal;HPM_P1;HPM_P2
2022/07/24 06:32:44;;;;;;;;;;;27.20;85.20;;;;;;5277448;23;19966;-79
2022/07/24 06:35:10;;;;;;;;;;;27.20;85.20;;;;;;4980551;28;20016;-79
2022/07/24 06:37:37;;;;;;;;;;;27.20;85.20;;;;;;4983565;28;19988;-81
2022/07/24 06:40:04;;;;;;;;;;;27.20;85.20;;;;;;4978526;28;20429;-78
2022/07/24 06:42:31;;;;;;;;;;;27.20;85.20;;;;;;4975421;28;20021;-78
2022/07/24 06:44:58;;;;;;;;;;;27.20;85.20;;;;;;4977938;28;19973;-80
2022/07/24 06:47:25;;;;;;;;;;;27.20;85.20;;;;;;4980272;28;20025;-79
2022/07/24 06:49:53;;;;;;;;;;;27.20;85.20;;;;;;4982855;28;20102;-79
2022/07/24 06:52:20;;;;;;;;;;;27.20;85.20;;;;;;4979127;28;20024;-79
2022/07/24 06:54:48;;;;;;;;;;;27.20;85.20;;;;;;4975703;28;20390;-78
2022/07/24 06:57:14;;;;;;;;;;;27.20;85.20;;;;;;4976965;28;20384;-80
2022/07/24 06:59:41;;;;;;;;;;;27.20;85.20;;;;;;4977816;28;20012;-79
2022/07/24 07:02:08;;;;;;;;;;;27.20;85.20;;;;;;4976658;28;20456;-78
2022/07/24 07:04:34;;;;;;;;;;;27.20;85.20;;;;;;4978109;28;19926;-79
2022/07/24 07:07:03;;;;;;;;;;;27.20;85.20;;;;;;4979533;28;19926;-78
2022/07/24 07:09:29;;;;;;;;;;;27.20;85.10;;;;;;4979818;28;19937;-79
2022/07/24 07:11:56;;;;;;;;;;;27.20;85.10;;;;;;4979320;28;19970;-80
2022/07/24 07:14:23;;;;;;;;;;;27.20;85.00;;;;;;4979243;28;20016;-80
2022/07/24 07:16:50;;;;;;;;;;;27.20;84.90;;;;;;4979521;28;19962;-79
2022/07/24 07:19:16;;;;;;;;;;;27.20;84.90;;;;;;4979139;28;19968;-80
2022/07/24 07:21:43;;;;;;;;;;;27.10;84.70;;;;;;4978739;28;19961;-80
2022/07/24 07:24:11;;;;;;;;;;;27.20;84.70;;;;;;4978563;28;19926;-80
2022/07/24 07:26:38;;;;;;;;;;;27.10;84.60;;;;;;4981652;28;19926;-80
2022/07/24 07:29:05;;;;;;;;;;;27.20;84.60;;;;;;4982957;28;19926;-79
2022/07/24 07:31:31;;;;;;;;;;;27.10;84.40;;;;;;4979870;28;20020;-79
2022/07/24 07:33:58;;;;;;;;;;;27.10;84.40;;;;;;4978074;28;19926;-78
2022/07/24 07:36:25;;;;;;;;;;;27.10;84.30;;;;;;4978382;28;19938;-78
2022/07/24 07:38:52;;;;;;;;;;;27.10;84.40;;;;;;4978139;28;19933;-78
2022/07/24 07:41:20;;;;;;;;;;;27.20;84.50;;;;;;4978232;28;19933;-78
2022/07/24 07:43:47;;;;;;;;;;;27.10;84.30;;;;;;4978122;28;19926;-78
2022/07/24 07:46:14;;;;;;;;;;;27.20;84.40;;;;;;4977652;28;20390;-78
2022/07/24 07:48:41;;;;;;;;;;;27.20;84.40;;;;;;4977577;28;19933;-78
2022/07/24 07:51:07;;;;;;;;;;;27.20;84.40;;;;;;4977813;28;19937;-77
2022/07/24 07:53:34;;;;;;;;;;;27.20;84.40;;;;;;4977833;28;19926;-77
2022/07/24 07:56:01;;;;;;;;;;;27.20;84.30;;;;;;4977772;28;19926;-77
2022/07/24 07:58:29;;;;;;;;;;;27.10;84.10;;;;;;4977313;28;20374;-77
2022/07/24 08:00:55;;;;;;;;;;;27.10;84.10;;;;;;4978149;28;19926;-78
2022/07/24 08:03:22;;;;;;;;;;;27.10;84.00;;;;;;4977579;28;19938;-78
2022/07/24 08:05:49;;;;;;;;;;;27.10;83.90;;;;;;4977669;28;19962;-77
2022/07/24 08:08:15;;;;;;;;;;;27.10;83.90;;;;;;4977544;28;19926;-78
2022/07/24 08:10:42;;;;;;;;;;;27.10;83.80;;;;;;4977494;28;20025;-78
2022/07/24 08:13:09;;;;;;;;;;;27.10;83.70;;;;;;4977394;28;19926;-77
2022/07/24 08:15:37;;;;;;;;;;;27.10;83.80;;;;;;4977474;28;19926;-78
2022/07/24 08:18:04;;;;;;;;;;;27.10;83.80;;;;;;4977332;28;19926;-77
2022/07/24 08:20:30;;;;;;;;;;;27.10;83.80;;;;;;4977310;28;20392;-77
2022/07/24 08:22:57;;;;;;;;;;;27.10;83.80;;;;;;4976636;28;20327;-77
2022/07/24 08:25:24;;;;;;;;;;;27.20;83.90;;;;;;4977039;28;20333;-77
2022/07/24 08:27:50;;;;;;;;;;;27.20;83.90;;;;;;4976763;28;20061;-77
2022/07/24 08:30:17;;;;;;;;;;;27.20;83.80;;;;;;4977052;28;19930;-79
2022/07/24 08:32:45;;;;;;;;;;;27.10;83.60;;;;;;4976943;28;20296;-78
2022/07/24 08:35:13;;;;;;;;;;;27.20;83.60;;;;;;4977290;28;19992;-78
2022/07/24 08:37:41;;;;;;;;;;;27.10;83.50;;;;;;4975209;28;20286;-78
2022/07/24 08:40:08;;;;;;;;;;;27.20;83.40;;;;;;4976806;28;20025;-78
2022/07/24 08:42:35;;;;;;;;;;;27.10;83.10;;;;;;4976900;28;20016;-78
2022/07/24 08:45:02;;;;;;;;;;;27.10;82.90;;;;;;4976950;28;20013;-78
2022/07/24 08:47:31;;;;;;;;;;;27.10;82.60;;;;;;4977562;28;20021;-79
2022/07/24 08:50:01;;;;;;;;;;;27.10;82.40;;;;;;4976653;28;20037;-78
2022/07/24 08:52:28;;;;;;;;;;;27.10;82.10;;;;;;4977095;28;19930;-79
2022/07/24 08:54:55;;;;;;;;;;;27.10;81.90;;;;;;4977542;28;20020;-79
2022/07/24 08:57:21;;;;;;;;;;;27.10;81.60;;;;;;4979765;28;19934;-79
2022/07/24 08:59:48;;;;;;;;;;;27.10;81.40;;;;;;4979825;28;20012;-79
2022/07/24 09:02:15;;;;;;;;;;;27.10;81.00;;;;;;4979226;28;19973;-79
2022/07/24 09:04:42;;;;;;;;;;;27.10;80.80;;;;;;4978843;28;20025;-79
2022/07/24 09:07:11;;;;;;;;;;;27.10;80.80;;;;;;4979049;28;20009;-79
2022/07/24 09:09:39;;;;;;;;;;;27.10;80.80;;;;;;4978993;28;19926;-78
2022/07/24 09:12:07;;;;;;;;;;;27.10;80.80;;;;;;4979204;28;19933;-77
2022/07/24 09:14:34;;;;;;;;;;;27.10;81.10;;;;;;4978618;28;19933;-79
2022/07/24 09:17:02;;;;;;;;;;;27.10;80.30;;;;;;4979212;28;20013;-79
2022/07/24 09:19:29;;;;;;;;;;;27.10;80.10;;;;;;4980406;28;19984;-78
2022/07/24 09:21:56;;;;;;;;;;;27.10;80.00;;;;;;4980563;28;19969;-79
2022/07/24 09:24:24;;;;;;;;;;;27.10;79.80;;;;;;4981570;28;20417;-79
2022/07/24 09:26:51;;;;;;;;;;;27.10;79.70;;;;;;4981043;28;19970;-78
2022/07/24 09:29:19;;;;;;;;;;;27.10;79.50;;;;;;4979702;28;19996;-79
2022/07/24 09:31:52;;;;;;;;;;;27.10;79.40;;;;;;4979409;28;20000;-77
2022/07/24 09:34:19;;;;;;;;;;;27.10;79.30;;;;;;4979583;28;19985;-79
2022/07/24 09:36:55;;;;;;;;;;;27.10;79.20;;;;;;4979592;28;19985;-79
2022/07/24 09:39:22;;;;;;;;;;;27.10;79.10;;;;;;4980557;28;19965;-79
2022/07/24 09:41:53;;;;;;;;;;;27.10;79.00;;;;;;4979856;28;19926;-79
2022/07/24 09:44:20;;;;;;;;;;;27.10;78.60;;;;;;4980018;28;19933;-79
2022/07/24 09:46:47;;;;;;;;;;;27.10;78.50;;;;;;4979577;28;19933;-79
2022/07/24 09:49:19;;;;;;;;;;;27.10;78.20;;;;;;4979939;28;19933;-79
2022/07/24 09:51:47;;;;;;;;;;;27.10;77.90;;;;;;4980532;28;19926;-79
2022/07/24 09:54:28;;;;;;;;;;;27.10;77.60;;;;;;4979900;28;19926;-79
2022/07/24 09:57:14;;;;;;;;;;;27.10;77.30;;;;;;4979165;28;20005;-78
2022/07/24 09:59:41;;;;;;;;;;;27.10;77.00;;;;;;4979342;28;19984;-81
2022/07/24 10:02:08;;;;;;;;;;;27.10;76.70;;;;;;4979299;28;20016;-78
2022/07/24 10:04:35;;;;;;;;;;;27.00;76.20;;;;;;4979172;28;20013;-78
2022/07/24 10:07:03;;;;;;;;;;;27.00;75.80;;;;;;4979427;28;19927;-78
2022/07/24 10:09:30;;;;;;;;;;;27.00;75.40;;;;;;4978983;28;20376;-79
2022/07/24 10:11:58;;;;;;;;;;;27.00;74.80;;;;;;4979222;28;19926;-78
2022/07/24 10:14:25;;;;;;;;;;;27.00;74.70;;;;;;4979007;28;20021;-79
2022/07/24 10:17:00;;;;;;;;;;;27.00;74.70;;;;;;4978912;28;19926;-79
2022/07/24 10:19:33;;;;;;;;;;;27.00;74.30;;;;;;4979421;28;20013;-79
2022/07/24 10:22:01;;;;;;;;;;;27.00;73.90;;;;;;4976614;28;20038;-78
2022/07/24 10:24:52;;;;;;;;;;;27.00;73.40;;;;;;4976833;28;20024;-78
2022/07/24 10:27:24;;;;;;;;;;;27.00;73.00;;;;;;4976679;28;20017;-78
2022/07/24 10:29:52;;;;;;;;;;;27.00;72.70;;;;;;4976768;28;20012;-78
2022/07/24 10:32:19;;;;;;;;;;;27.00;72.40;;;;;;4976106;28;19977;-78
2022/07/24 10:34:47;;;;;;;;;;;27.00;72.10;;;;;;4976426;28;19926;-78
2022/07/24 10:37:20;;;;;;;;;;;27.00;71.80;;;;;;4976136;28;19989;-78
2022/07/24 10:39:51;;;;;;;;;;;27.00;71.60;;;;;;4976527;28;20301;-79
2022/07/24 10:42:17;;;;;;;;;;;27.00;71.30;;;;;;4977379;28;20021;-78
2022/07/24 10:45:06;;;;;;;;;;;27.10;71.20;;;;;;4976923;28;19969;-79
2022/07/24 10:47:32;;;;;;;;;;;27.10;71.00;;;;;;4976664;28;20102;-79
2022/07/24 10:50:00;;;;;;;;;;;27.10;70.70;;;;;;4977463;28;19930;-79
2022/07/24 10:52:28;;;;;;;;;;;27.10;70.50;;;;;;4977643;28;20293;-79
2022/07/24 10:55:13;;;;;;;;;;;27.10;70.30;;;;;;4978645;28;19930;-80
2022/07/24 10:57:46;;;;;;;;;;;27.10;70.00;;;;;;4981067;28;19997;-79
2022/07/24 11:00:23;;;;;;;;;;;27.10;69.70;;;;;;4978507;28;19926;-79
2022/07/24 11:02:55;;;;;;;;;;;27.10;69.50;;;;;;4978799;28;20293;-75
2022/07/24 11:05:26;;;;;;;;;;;27.20;69.20;;;;;;4978614;28;20017;-78
2022/07/24 11:08:11;;;;;;;;;;;27.20;69.00;;;;;;4978179;28;19958;-78
2022/07/24 11:10:45;;;;;;;;;;;27.20;68.90;;;;;;4978607;28;19937;-78
2022/07/24 11:13:26;;;;;;;;;;;27.20;68.90;;;;;;4978762;28;19933;-79
2022/07/24 11:16:17;;;;;;;;;;;27.20;68.60;;;;;;4978054;28;19984;-78
2022/07/24 11:19:04;;;;;;;;;;;27.20;68.20;;;;;;4978490;28;19926;-78
2022/07/24 11:21:33;;;;;;;;;;;27.20;67.90;;;;;;4977881;28;20017;-78
2022/07/24 11:24:25;;;;;;;;;;;27.20;67.70;;;;;;4978265;28;19926;-78
2022/07/24 11:26:52;;;;;;;;;;;27.20;67.50;;;;;;4963429;28;20021;-77
2022/07/24 11:29:21;;;;;;;;;;;27.20;67.10;;;;;;4978167;28;19930;-78
2022/07/24 11:31:50;;;;;;;;;;;27.20;66.90;;;;;;4978014;28;20374;-77
2022/07/24 11:34:16;;;;;;;;;;;27.20;66.70;;;;;;4981499;28;19990;-80
2022/07/24 11:36:44;;;;;;;;;;;27.20;66.40;;;;;;4982489;28;19969;-80
2022/07/24 11:39:11;;;;;;;;;;;27.20;66.20;;;;;;4982100;28;19985;-80
2022/07/24 11:41:45;;;;;;;;;;;27.20;65.90;;;;;;4982791;28;20001;-80
2022/07/24 11:44:11;;;;;;;;;;;27.20;65.70;;;;;;4983033;28;19926;-82
2022/07/24 11:46:39;;;;;;;;;;;27.20;65.40;;;;;;4982607;28;20017;-79
2022/07/24 11:49:08;;;;;;;;;;;27.20;65.20;;;;;;4982924;28;19926;-82
2022/07/24 11:51:41;;;;;;;;;;;27.20;64.90;;;;;;4994061;28;19941;-80
2022/07/24 11:54:08;;;;;;;;;;;27.20;64.70;;;;;;4992789;28;19973;-79
2022/07/24 11:56:34;;;;;;;;;;;27.20;64.30;;;;;;4983857;28;19926;-79
2022/07/24 11:59:01;;;;;;;;;;;27.20;64.00;;;;;;4983394;28;19973;-80
2022/07/24 12:01:28;;;;;;;;;;;27.20;63.70;;;;;;4979858;28;20012;-78
2022/07/24 12:03:57;;;;;;;;;;;27.20;63.40;;;;;;4980430;28;19974;-79
2022/07/24 12:06:25;;;;;;;;;;;27.20;63.00;;;;;;4983138;28;19980;-79
2022/07/24 12:08:52;;;;;;;;;;;27.20;62.80;;;;;;4983299;28;20449;-81
2022/07/24 12:11:22;;;;;;;;;;;27.10;62.70;;;;;;4981968;28;20013;-83
2022/07/24 12:13:51;;;;;;;;;;;27.20;62.80;;;;;;4985694;28;20016;-85
2022/07/24 12:16:23;;;;;;;;;;;27.20;62.80;;;;;;4981367;28;19930;-85
2022/07/24 12:18:50;;;;;;;;;;;27.20;62.50;;;;;;4983059;28;19965;-85
2022/07/24 12:21:18;;;;;;;;;;;27.20;62.30;;;;;;4982465;28;20036;-82
2022/07/24 12:23:47;;;;;;;;;;;27.20;62.10;;;;;;4983441;28;20017;-83
2022/07/24 12:26:14;;;;;;;;;;;27.20;62.10;;;;;;4983904;28;20029;-83
2022/07/24 12:28:41;;;;;;;;;;;27.30;62.10;;;;;;4984511;28;19926;-84
2022/07/24 12:31:09;;;;;;;;;;;27.30;62.00;;;;;;4983290;28;19927;-83
2022/07/24 12:33:36;;;;;;;;;;;27.30;61.90;;;;;;4982483;28;19926;-84
2022/07/24 12:36:08;;;;;;;;;;;27.30;61.80;;;;;;4982812;28;19927;-83
2022/07/24 12:38:36;;;;;;;;;;;27.30;61.80;;;;;;4982955;28;19926;-84
2022/07/24 12:41:05;;;;;;;;;;;27.30;61.70;;;;;;4982720;28;19926;-81
2022/07/24 12:43:33;;;;;;;;;;;27.40;61.80;;;;;;4984897;28;19926;-80
2022/07/24 12:46:07;;;;;;;;;;;27.40;61.70;;;;;;4984550;28;19926;-80
2022/07/24 12:48:36;;;;;;;;;;;27.40;61.70;;;;;;4982717;28;20378;-82
2022/07/24 12:51:12;;;;;;;;;;;27.40;61.60;;;;;;4984267;28;20017;-79
2022/07/24 12:53:42;;;;;;;;;;;27.40;61.70;;;;;;4985188;28;19997;-79
2022/07/24 12:56:12;;;;;;;;;;;27.40;61.70;;;;;;4987035;28;19990;-80
2022/07/24 12:58:56;;;;;;;;;;;27.40;61.70;;;;;;4985399;28;20382;-79
2022/07/24 13:01:23;;;;;;;;;;;27.40;61.70;;;;;;4987149;28;20033;-79
2022/07/24 13:04:03;;;;;;;;;;;27.40;61.80;;;;;;4985202;28;19932;-81
2022/07/24 13:06:34;;;;;;;;;;;27.40;61.80;;;;;;4986199;28;19933;-81
2022/07/24 13:09:01;;;;;;;;;;;27.50;62.00;;;;;;4984764;28;19973;-80
2022/07/24 13:11:30;;;;;;;;;;;27.50;62.00;;;;;;4985581;28;19977;-80
2022/07/24 13:13:57;;;;;;;;;;;27.50;62.10;;;;;;4986240;28;20401;-80
2022/07/24 13:16:28;;;;;;;;;;;27.50;62.10;;;;;;4986705;28;19926;-81
2022/07/24 13:18:55;;;;;;;;;;;27.50;62.10;;;;;;4983453;28;20278;-82
2022/07/24 13:21:22;;;;;;;;;;;27.50;62.20;;;;;;4982882;28;19964;-82
2022/07/24 13:23:49;;;;;;;;;;;27.50;62.20;;;;;;4981852;28;19936;-82
2022/07/24 13:26:16;;;;;;;;;;;27.50;62.20;;;;;;4981828;28;20366;-83
2022/07/24 13:28:44;;;;;;;;;;;27.50;62.30;;;;;;4980740;28;20020;-80
2022/07/24 13:31:11;;;;;;;;;;;27.50;62.30;;;;;;4979842;28;20025;-80
2022/07/24 13:33:38;;;;;;;;;;;27.50;63.00;;;;;;4980125;28;19933;-80
2022/07/24 13:36:05;;;;;;;;;;;27.50;62.20;;;;;;4980084;28;20354;-80
2022/07/24 13:38:31;;;;;;;;;;;27.50;62.10;;;;;;4980283;28;20020;-80
2022/07/24 13:40:58;;;;;;;;;;;27.50;62.10;;;;;;4980317;28;20020;-80
2022/07/24 13:43:25;;;;;;;;;;;27.50;62.10;;;;;;4979963;28;19933;-80
2022/07/24 13:45:53;;;;;;;;;;;27.50;62.10;;;;;;4979892;28;20017;-80
2022/07/24 13:48:19;;;;;;;;;;;27.50;62.10;;;;;;4980039;28;20009;-79
2022/07/24 13:50:46;;;;;;;;;;;27.50;62.10;;;;;;4980123;28;19981;-79
2022/07/24 13:53:13;;;;;;;;;;;27.50;62.20;;;;;;4980074;28;20016;-79
2022/07/24 13:55:40;;;;;;;;;;;27.50;62.20;;;;;;4979819;28;20394;-80
2022/07/24 13:58:07;;;;;;;;;;;27.50;62.20;;;;;;4980435;28;20025;-80
2022/07/24 14:00:33;;;;;;;;;;;27.50;62.20;;;;;;4980160;28;19926;-81
2022/07/24 14:03:01;;;;;;;;;;;27.60;62.20;;;;;;4980083;28;20013;-81
2022/07/24 14:05:28;;;;;;;;;;;27.50;62.20;;;;;;4980456;28;20369;-80
2022/07/24 14:07:55;;;;;;;;;;;27.50;62.20;;;;;;4978763;28;20028;-80
2022/07/24 14:10:22;;;;;;;;;;;27.50;62.20;;;;;;4979491;28;20044;-80
2022/07/24 14:12:49;;;;;;;;;;;27.60;62.20;;;;;;4980392;28;19976;-80
2022/07/24 14:15:16;;;;;;;;;;;27.60;62.20;;;;;;4979931;28;19926;-82
2022/07/24 14:17:43;;;;;;;;;;;27.60;62.20;;;;;;4979748;28;19969;-81
2022/07/24 14:20:13;;;;;;;;;;;27.60;62.20;;;;;;4980887;28;19952;-81
2022/07/24 14:22:41;;;;;;;;;;;27.60;62.10;;;;;;4980380;28;20008;-82
2022/07/24 14:25:08;;;;;;;;;;;27.60;62.00;;;;;;4979517;28;20009;-82
2022/07/24 14:27:35;;;;;;;;;;;27.60;61.90;;;;;;4979138;28;20013;-82
2022/07/24 14:30:03;;;;;;;;;;;27.60;61.80;;;;;;4978576;28;20300;-81
2022/07/24 14:32:30;;;;;;;;;;;27.60;61.80;;;;;;4978635;28;20005;-81
2022/07/24 14:34:56;;;;;;;;;;;27.60;61.70;;;;;;4980196;28;20028;-83
2022/07/24 14:37:25;;;;;;;;;;;27.50;61.50;;;;;;4983046;28;20021;-82
2022/07/24 14:39:51;;;;;;;;;;;27.60;61.50;;;;;;4983241;28;19926;-81
2022/07/24 14:42:18;;;;;;;;;;;27.60;61.50;;;;;;4983436;28;19926;-81
2022/07/24 14:44:45;;;;;;;;;;;27.60;61.40;;;;;;4983903;28;19926;-82
2022/07/24 14:47:11;;;;;;;;;;;27.60;61.40;;;;;;4983098;28;20021;-81
2022/07/24 14:49:38;;;;;;;;;;;27.60;61.30;;;;;;4982624;28;19973;-82
2022/07/24 14:52:05;;;;;;;;;;;27.60;61.20;;;;;;4982223;28;19933;-82
2022/07/24 14:54:33;;;;;;;;;;;27.60;61.20;;;;;;4982358;28;20021;-82
2022/07/24 14:57:00;;;;;;;;;;;27.60;61.10;;;;;;4982225;28;20021;-82
2022/07/24 14:59:27;;;;;;;;;;;27.60;61.10;;;;;;4982846;28;19926;-81
2022/07/24 15:01:54;;;;;;;;;;;27.60;61.00;;;;;;4981590;28;19973;-81
2022/07/24 15:04:20;;;;;;;;;;;27.60;60.80;;;;;;4981777;28;19930;-80
2022/07/24 15:06:47;;;;;;;;;;;27.60;60.70;;;;;;4979868;28;20021;-79
2022/07/24 15:09:14;;;;;;;;;;;27.60;60.50;;;;;;4979699;28;19926;-80
2022/07/24 15:11:43;;;;;;;;;;;27.60;60.40;;;;;;4980889;28;19926;-80
2022/07/24 15:14:09;;;;;;;;;;;27.60;60.30;;;;;;4982308;28;19926;-79
2022/07/24 15:16:36;;;;;;;;;;;27.60;60.10;;;;;;4981283;28;19933;-81
2022/07/24 15:19:03;;;;;;;;;;;27.60;60.00;;;;;;4980354;28;20020;-80
2022/07/24 15:21:30;;;;;;;;;;;27.60;59.90;;;;;;4981107;28;20017;-78
2022/07/24 15:23:57;;;;;;;;;;;27.60;59.80;;;;;;4980864;28;19973;-79
2022/07/24 15:26:24;;;;;;;;;;;27.60;59.70;;;;;;4984211;28;19926;-81
2022/07/24 15:28:53;;;;;;;;;;;27.60;59.70;;;;;;4984926;28;19926;-81
2022/07/24 15:31:21;;;;;;;;;;;27.60;59.60;;;;;;4984282;28;20301;-80
2022/07/24 15:33:48;;;;;;;;;;;27.50;59.50;;;;;;4982674;28;19947;-81
2022/07/24 15:36:15;;;;;;;;;;;27.60;59.50;;;;;;4982154;28;19967;-81
2022/07/24 15:38:41;;;;;;;;;;;27.60;59.40;;;;;;4981945;28;19950;-80
2022/07/24 15:41:08;;;;;;;;;;;27.60;59.40;;;;;;4981573;28;19932;-81
2022/07/24 15:43:35;;;;;;;;;;;27.60;59.40;;;;;;4982541;28;19930;-83
2022/07/24 15:46:03;;;;;;;;;;;27.60;59.30;;;;;;4982176;28;19964;-82
2022/07/24 15:48:29;;;;;;;;;;;27.60;59.20;;;;;;4982450;28;20029;-80
2022/07/24 15:50:56;;;;;;;;;;;27.50;59.10;;;;;;4983799;28;19998;-81
2022/07/24 15:53:23;;;;;;;;;;;27.60;59.10;;;;;;4983955;28;19993;-82
2022/07/24 15:55:49;;;;;;;;;;;27.50;59.10;;;;;;4983065;28;20017;-82
2022/07/24 15:58:16;;;;;;;;;;;27.50;59.00;;;;;;4982491;28;20021;-81
2022/07/24 16:00:43;;;;;;;;;;;27.50;59.00;;;;;;4981961;28;20416;-81
2022/07/24 16:03:11;;;;;;;;;;;27.60;59.00;;;;;;4982630;28;20016;-81
2022/07/24 16:05:37;;;;;;;;;;;27.50;58.90;;;;;;4982821;28;20360;-80
2022/07/24 16:08:04;;;;;;;;;;;27.60;58.90;;;;;;4982982;28;20017;-81
2022/07/24 16:10:31;;;;;;;;;;;27.60;58.90;;;;;;4983769;28;20021;-81
2022/07/24 16:12:58;;;;;;;;;;;27.60;58.80;;;;;;4983600;28;20021;-80
2022/07/24 16:15:24;;;;;;;;;;;27.60;58.80;;;;;;4983348;28;19994;-81
2022/07/24 16:17:51;;;;;;;;;;;27.60;58.70;;;;;;4983298;28;19964;-80
2022/07/24 16:20:19;;;;;;;;;;;27.60;58.60;;;;;;4983206;28;19993;-80
2022/07/24 16:22:46;;;;;;;;;;;27.50;58.40;;;;;;4983604;28;19970;-80
2022/07/24 16:25:13;;;;;;;;;;;27.60;58.30;;;;;;4983261;28;20024;-81
2022/07/24 16:27:39;;;;;;;;;;;27.50;58.10;;;;;;4983354;28;19930;-82
2022/07/24 16:30:07;;;;;;;;;;;27.50;58.00;;;;;;4980911;28;20018;-81
2022/07/24 16:32:34;;;;;;;;;;;27.50;58.40;;;;;;4980302;28;19930;-81
2022/07/24 16:35:00;;;;;;;;;;;27.50;57.60;;;;;;4981024;28;20025;-81
2022/07/24 16:37:28;;;;;;;;;;;27.50;57.60;;;;;;4980995;28;20013;-81
2022/07/24 16:39:55;;;;;;;;;;;27.50;57.60;;;;;;4981434;28;20018;-81
2022/07/24 16:42:22;;;;;;;;;;;27.50;57.60;;;;;;4981471;28;20022;-81
2022/07/24 16:44:48;;;;;;;;;;;27.50;57.60;;;;;;4981226;28;20469;-81
2022/07/24 16:47:15;;;;;;;;;;;27.50;57.60;;;;;;4980851;28;20469;-81
2022/07/24 16:49:42;;;;;;;;;;;27.50;57.40;;;;;;4981302;28;19926;-82
2022/07/24 16:52:11;;;;;;;;;;;27.50;57.30;;;;;;4981581;28;20021;-80
2022/07/24 16:54:39;;;;;;;;;;;27.50;57.20;;;;;;4981187;28;19926;-82
2022/07/24 16:57:06;;;;;;;;;;;27.50;57.10;;;;;;4980910;28;20013;-80
2022/07/24 16:59:32;;;;;;;;;;;27.50;57.00;;;;;;4979343;28;20029;-80
2022/07/24 17:01:59;;;;;;;;;;;27.50;56.90;;;;;;4979940;28;20016;-81
2022/07/24 17:04:26;;;;;;;;;;;27.50;56.90;;;;;;4981256;28;20001;-81
2022/07/24 17:06:52;;;;;;;;;;;27.50;56.80;;;;;;4982006;28;20021;-80
2022/07/24 17:09:19;;;;;;;;;;;27.50;56.80;;;;;;4980613;28;20017;-81
2022/07/24 17:11:51;;;;;;;;;;;27.50;56.70;;;;;;4980106;28;20021;-80
2022/07/24 17:14:18;;;;;;;;;;;27.50;56.70;;;;;;4980739;28;20017;-80
2022/07/24 17:16:45;;;;;;;;;;;27.50;56.70;;;;;;4980858;28;19993;-79
2022/07/24 17:19:11;;;;;;;;;;;27.50;56.60;;;;;;4981817;28;19965;-80
2022/07/24 17:21:38;;;;;;;;;;;27.50;56.50;;;;;;4980958;28;19962;-79
2022/07/24 17:24:05;;;;;;;;;;;27.50;56.40;;;;;;4981791;28;20005;-79
2022/07/24 17:26:32;;;;;;;;;;;27.50;56.40;;;;;;4981077;28;19926;-79
2022/07/24 17:29:00;;;;;;;;;;;27.50;56.30;;;;;;4982502;28;19965;-81
2022/07/24 17:31:27;;;;;;;;;;;27.50;56.30;;;;;;4981219;28;19969;-80
2022/07/24 17:33:54;;;;;;;;;;;27.50;56.30;;;;;;4981143;28;19965;-81
2022/07/24 17:36:21;;;;;;;;;;;27.50;56.20;;;;;;4981696;28;20024;-80
2022/07/24 17:38:48;;;;;;;;;;;27.50;56.20;;;;;;4980079;28;19930;-81
2022/07/24 17:41:15;;;;;;;;;;;27.50;56.20;;;;;;4980554;28;20029;-80
2022/07/24 17:43:42;;;;;;;;;;;27.50;56.10;;;;;;4980122;28;19927;-81
2022/07/24 17:46:10;;;;;;;;;;;27.50;56.10;;;;;;4980322;28;20013;-83
2022/07/24 17:48:36;;;;;;;;;;;27.50;56.10;;;;;;4980037;28;20327;-83
2022/07/24 17:51:03;;;;;;;;;;;27.40;56.00;;;;;;4980061;28;20013;-82
2022/07/24 17:53:30;;;;;;;;;;;27.50;56.00;;;;;;4980139;28;20029;-83
2022/07/24 17:55:56;;;;;;;;;;;27.50;56.10;;;;;;4980265;28;19965;-84
2022/07/24 17:58:23;;;;;;;;;;;27.50;56.10;;;;;;4980265;28;19969;-83
2022/07/24 18:00:50;;;;;;;;;;;27.50;56.10;;;;;;4981176;28;19961;-83
2022/07/24 18:03:18;;;;;;;;;;;27.50;56.10;;;;;;4981081;28;19961;-83
2022/07/24 18:05:44;;;;;;;;;;;27.50;56.20;;;;;;4981984;28;19950;-82
2022/07/24 18:08:12;;;;;;;;;;;27.50;56.20;;;;;;4981289;28;19972;-83
2022/07/24 18:10:39;;;;;;;;;;;27.50;56.30;;;;;;4980723;28;20004;-83
2022/07/24 18:13:05;;;;;;;;;;;27.50;56.40;;;;;;4980767;28;19993;-83
2022/07/24 18:15:32;;;;;;;;;;;27.50;56.40;;;;;;4980903;28;20009;-83
2022/07/24 18:17:59;;;;;;;;;;;27.50;56.60;;;;;;4981410;28;20365;-82
2022/07/24 18:20:27;;;;;;;;;;;27.50;56.60;;;;;;4980052;28;19965;-83
2022/07/24 18:22:54;;;;;;;;;;;27.50;56.80;;;;;;4979499;28;19926;-82
2022/07/24 18:25:20;;;;;;;;;;;27.60;57.00;;;;;;4979869;28;20020;-81
2022/07/24 18:27:47;;;;;;;;;;;27.60;57.20;;;;;;4979764;28;20013;-81
2022/07/24 18:30:16;;;;;;;;;;;27.60;57.40;;;;;;4978874;28;20008;-81
2022/07/24 18:32:42;;;;;;;;;;;27.60;57.60;;;;;;4980945;28;19933;-81
2022/07/24 18:35:09;;;;;;;;;;;27.60;57.60;;;;;;4979673;28;19990;-80
2022/07/24 18:37:37;;;;;;;;;;;27.60;57.60;;;;;;4978635;28;20017;-80
2022/07/24 18:40:04;;;;;;;;;;;27.60;57.60;;;;;;4978295;28;19926;-79
2022/07/24 18:42:31;;;;;;;;;;;27.60;57.60;;;;;;4978061;28;20021;-79
2022/07/24 18:44:57;;;;;;;;;;;27.60;57.80;;;;;;4977828;28;19926;-79
2022/07/24 18:47:24;;;;;;;;;;;27.60;58.00;;;;;;4978536;28;20018;-79
2022/07/24 18:49:51;;;;;;;;;;;27.60;58.10;;;;;;4977600;28;19973;-79
2022/07/24 18:52:17;;;;;;;;;;;27.60;58.40;;;;;;4977764;28;20017;-80
2022/07/24 18:54:45;;;;;;;;;;;27.60;58.60;;;;;;4978270;28;19980;-79
2022/07/24 18:57:13;;;;;;;;;;;27.60;58.70;;;;;;4978401;28;20412;-79
2022/07/24 18:59:40;;;;;;;;;;;27.60;58.90;;;;;;4979032;28;20054;-80
2022/07/24 19:02:06;;;;;;;;;;;27.60;59.00;;;;;;4978806;28;20013;-80
2022/07/24 19:04:35;;;;;;;;;;;27.60;59.20;;;;;;4979390;28;19989;-80
2022/07/24 19:07:04;;;;;;;;;;;27.60;59.30;;;;;;4979850;28;20017;-80
2022/07/24 19:09:31;;;;;;;;;;;27.60;59.50;;;;;;4979232;28;19969;-81
2022/07/24 19:11:59;;;;;;;;;;;27.60;59.70;;;;;;4979791;28;19949;-79
2022/07/24 19:14:26;;;;;;;;;;;27.70;59.90;;;;;;4979620;28;19997;-80
2022/07/24 19:16:53;;;;;;;;;;;27.60;60.00;;;;;;4979552;28;20298;-80
2022/07/24 19:19:20;;;;;;;;;;;27.60;60.20;;;;;;4979230;28;20013;-79
2022/07/24 19:21:47;;;;;;;;;;;27.60;60.40;;;;;;4979570;28;19934;-80
2022/07/24 19:24:14;;;;;;;;;;;27.60;60.50;;;;;;4982943;28;20021;-79
2022/07/24 19:26:40;;;;;;;;;;;27.60;60.70;;;;;;4983319;28;20020;-80
2022/07/24 19:29:09;;;;;;;;;;;27.60;60.90;;;;;;4982985;28;20021;-80
2022/07/24 19:31:35;;;;;;;;;;;27.60;61.10;;;;;;4979273;28;19932;-78
2022/07/24 19:34:02;;;;;;;;;;;27.60;61.30;;;;;;4979527;28;19969;-78
2022/07/24 19:36:31;;;;;;;;;;;27.60;61.60;;;;;;4978200;28;19933;-77
2022/07/24 19:38:57;;;;;;;;;;;27.60;61.70;;;;;;4978783;28;19993;-78
2022/07/24 19:41:24;;;;;;;;;;;27.60;62.00;;;;;;4977801;28;20396;-78
2022/07/24 19:43:51;;;;;;;;;;;27.60;62.20;;;;;;4978326;28;19926;-78
2022/07/24 19:46:19;;;;;;;;;;;27.60;62.40;;;;;;4978301;28;20020;-78
2022/07/24 19:48:45;;;;;;;;;;;27.60;62.60;;;;;;4977945;28;19976;-78
2022/07/24 19:51:12;;;;;;;;;;;27.60;62.90;;;;;;4979296;28;19973;-79
2022/07/24 19:53:39;;;;;;;;;;;27.60;63.10;;;;;;4979961;28;20445;-79
2022/07/24 19:56:06;;;;;;;;;;;27.60;63.10;;;;;;4981723;28;19954;-79
2022/07/24 19:58:32;;;;;;;;;;;27.60;63.10;;;;;;4981802;28;20021;-79
2022/07/24 20:00:59;;;;;;;;;;;27.60;63.10;;;;;;4980213;28;19932;-78
2022/07/24 20:03:27;;;;;;;;;;;27.60;63.10;;;;;;4980122;28;19926;-78
2022/07/24 20:05:54;;;;;;;;;;;27.60;64.10;;;;;;4981151;28;19993;-80
2022/07/24 20:08:21;;;;;;;;;;;27.60;63.60;;;;;;4982944;28;19998;-79
2022/07/24 20:10:48;;;;;;;;;;;27.60;63.90;;;;;;4982428;28;19957;-80
2022/07/24 20:13:15;;;;;;;;;;;27.60;64.00;;;;;;4982220;28;20449;-79
2022/07/24 20:15:42;;;;;;;;;;;27.60;64.20;;;;;;4982751;28;19980;-79
2022/07/24 20:18:10;;;;;;;;;;;27.60;64.40;;;;;;4983016;28;19966;-80
2022/07/24 20:20:38;;;;;;;;;;;27.60;64.60;;;;;;4981081;28;19926;-78
2022/07/24 20:23:05;;;;;;;;;;;27.60;64.80;;;;;;4979594;28;20021;-79
2022/07/24 20:25:32;;;;;;;;;;;27.60;65.00;;;;;;4980561;28;20012;-79
2022/07/24 20:27:58;;;;;;;;;;;27.60;65.20;;;;;;4980806;28;20024;-79
2022/07/24 20:30:25;;;;;;;;;;;27.60;65.30;;;;;;4980921;28;19957;-79
2022/07/24 20:35:19;;;;;;;;;;;27.60;65.70;;;;;;5004376;23;20014;-82
2022/07/24 20:37:47;;;;;;;;;;;27.60;65.90;;;;;;4980076;28;19926;-82
2022/07/24 20:40:14;;;;;;;;;;;27.60;66.10;;;;;;4979783;28;19974;-84
2022/07/24 20:42:41;;;;;;;;;;;27.60;66.30;;;;;;4979306;28;20008;-83
2022/07/24 20:45:08;;;;;;;;;;;27.60;67.30;;;;;;4979228;28;19930;-83
2022/07/24 20:47:35;;;;;;;;;;;27.60;67.50;;;;;;4979384;28;20029;-83
2022/07/24 20:50:03;;;;;;;;;;;27.60;67.00;;;;;;4979209;28;20389;-83
2022/07/24 20:52:29;;;;;;;;;;;27.60;67.20;;;;;;4979836;28;19933;-83
2022/07/24 20:54:57;;;;;;;;;;;27.60;67.30;;;;;;4980127;28;19993;-84